sensor_id;sensor_type;location;lat;lon;timestamp;P1;durP1;ratioP1;P2;durP2;ratioP2
79009;SDS011;73031;44.726;37.760;2024-03-17T00:00:49;31.55;;;6.30;;
79009;SDS011;73031;44.726;37.760;2024-03-17T00:01:50;26.65;;;6.68;;
79009;SDS011;73031;44.726;37.760;2024-03-17T00:02:51;23.08;;;5.88;;
79009;SDS011;73031;44.726;37.760;2024-03-17T00:03:52;30.45;;;6.85;;
79009;SDS011;73031;44.726;37.760;2024-03-17T00:04:53;29.20;;;6.03;;
79009;SDS011;73031;44.726;37.760;2024-03-17T00:05:57;30.98;;;6.82;;
79009;SDS011;73031;44.726;37.760;2024-03-17T00:08:00;29.40;;;5.65;;
79009;SDS011;73031;44.726;37.760;2024-03-17T00:09:01;24.00;;;5.80;;
79009;SDS011;73031;44.726;37.760;2024-03-17T00:10:06;25.85;;;6.57;;
79009;SDS011;73031;44.726;37.760;2024-03-17T00:11:08;22.80;;;5.97;;
79009;SDS011;73031;44.726;37.760;2024-03-17T00:12:09;27.40;;;6.32;;
79009;SDS011;73031;44.726;37.760;2024-03-17T00:13:11;29.15;;;6.97;;
79009;SDS011;73031;44.726;37.760;2024-03-17T00:14:12;24.95;;;5.63;;
79009;SDS011;73031;44.726;37.760;2024-03-17T00:15:13;22.95;;;5.38;;
79009;SDS011;73031;44.726;37.760;2024-03-17T00:16:15;23.88;;;5.57;;
79009;SDS011;73031;44.726;37.760;2024-03-17T00:17:19;32.00;;;6.10;;
79009;SDS011;73031;44.726;37.760;2024-03-17T00:18:21;30.45;;;6.10;;
79009;SDS011;73031;44.726;37.760;2024-03-17T00:19:23;29.85;;;6.82;;
79009;SDS011;73031;44.726;37.760;2024-03-17T00:20:24;22.23;;;5.75;;
79009;SDS011;73031;44.726;37.760;2024-03-17T00:21:26;27.95;;;6.30;;
79009;SDS011;73031;44.726;37.760;2024-03-17T00:22:27;30.35;;;6.22;;
79009;SDS011;73031;44.726;37.760;2024-03-17T00:23:29;28.92;;;6.60;;
79009;SDS011;73031;44.726;37.760;2024-03-17T00:24:30;31.52;;;6.82;;
79009;SDS011;73031;44.726;37.760;2024-03-17T00:25:35;26.20;;;6.47;;
79009;SDS011;73031;44.726;37.760;2024-03-17T00:26:36;26.52;;;5.85;;
79009;SDS011;73031;44.726;37.760;2024-03-17T00:27:37;27.38;;;5.70;;
79009;SDS011;73031;44.726;37.760;2024-03-17T00:28:41;28.20;;;6.32;;
79009;SDS011;73031;44.726;37.760;2024-03-17T00:29:42;34.85;;;6.07;;
79009;SDS011;73031;44.726;37.760;2024-03-17T00:30:43;23.20;;;5.47;;
79009;SDS011;73031;44.726;37.760;2024-03-17T00:31:44;29.55;;;5.95;;
79009;SDS011;73031;44.726;37.760;2024-03-17T00:32:46;29.60;;;6.57;;
79009;SDS011;73031;44.726;37.760;2024-03-17T00:33:47;36.35;;;6.20;;
79009;SDS011;73031;44.726;37.760;2024-03-17T00:34:48;26.77;;;6.82;;
79009;SDS011;73031;44.726;37.760;2024-03-17T00:35:50;36.92;;;6.18;;
79009;SDS011;73031;44.726;37.760;2024-03-17T00:36:51;24.95;;;5.55;;
79009;SDS011;73031;44.726;37.760;2024-03-17T00:37:52;26.50;;;5.80;;
79009;SDS011;73031;44.726;37.760;2024-03-17T00:38:54;19.02;;;5.60;;
79009;SDS011;73031;44.726;37.760;2024-03-17T00:39:55;27.98;;;5.78;;
79009;SDS011;73031;44.726;37.760;2024-03-17T00:40:56;22.80;;;6.10;;
79009;SDS011;73031;44.726;37.760;2024-03-17T00:41:57;27.15;;;6.05;;
79009;SDS011;73031;44.726;37.760;2024-03-17T00:42:58;33.10;;;6.88;;
79009;SDS011;73031;44.726;37.760;2024-03-17T00:44:00;25.20;;;5.82;;
79009;SDS011;73031;44.726;37.760;2024-03-17T00:45:01;28.98;;;5.80;;
79009;SDS011;73031;44.726;37.760;2024-03-17T00:46:03;30.80;;;5.57;;
79009;SDS011;73031;44.726;37.760;2024-03-17T00:47:04;32.17;;;6.18;;
79009;SDS011;73031;44.726;37.760;2024-03-17T00:48:06;24.77;;;6.15;;
79009;SDS011;73031;44.726;37.760;2024-03-17T00:49:09;23.95;;;6.18;;
79009;SDS011;73031;44.726;37.760;2024-03-17T00:50:11;26.50;;;5.95;;
79009;SDS011;73031;44.726;37.760;2024-03-17T00:51:12;23.63;;;5.38;;
79009;SDS011;73031;44.726;37.760;2024-03-17T00:52:13;28.40;;;6.00;;
79009;SDS011;73031;44.726;37.760;2024-03-17T00:53:14;31.85;;;5.90;;
79009;SDS011;73031;44.726;37.760;2024-03-17T00:54:15;25.65;;;5.88;;
79009;SDS011;73031;44.726;37.760;2024-03-17T00:55:18;28.40;;;5.65;;
79009;SDS011;73031;44.726;37.760;2024-03-17T00:56:19;36.30;;;6.50;;
79009;SDS011;73031;44.726;37.760;2024-03-17T00:57:20;28.20;;;5.90;;
79009;SDS011;73031;44.726;37.760;2024-03-17T00:58:21;22.65;;;5.70;;
79009;SDS011;73031;44.726;37.760;2024-03-17T00:59:23;22.48;;;6.03;;
79009;SDS011;73031;44.726;37.760;2024-03-17T01:00:24;23.85;;;6.30;;
79009;SDS011;73031;44.726;37.760;2024-03-17T01:01:25;33.28;;;6.82;;
79009;SDS011;73031;44.726;37.760;2024-03-17T01:02:26;28.20;;;6.55;;
79009;SDS011;73031;44.726;37.760;2024-03-17T01:03:27;26.10;;;5.25;;
79009;SDS011;73031;44.726;37.760;2024-03-17T01:04:28;23.17;;;5.85;;
79009;SDS011;73031;44.726;37.760;2024-03-17T01:05:29;29.98;;;6.22;;
79009;SDS011;73031;44.726;37.760;2024-03-17T01:06:31;33.15;;;6.25;;
79009;SDS011;73031;44.726;37.760;2024-03-17T01:07:33;33.95;;;6.32;;
79009;SDS011;73031;44.726;37.760;2024-03-17T01:08:34;33.17;;;5.90;;
79009;SDS011;73031;44.726;37.760;2024-03-17T01:09:35;28.27;;;5.70;;
79009;SDS011;73031;44.726;37.760;2024-03-17T01:10:37;24.55;;;5.90;;
79009;SDS011;73031;44.726;37.760;2024-03-17T01:11:39;25.00;;;5.47;;
79009;SDS011;73031;44.726;37.760;2024-03-17T01:12:40;29.30;;;6.57;;
79009;SDS011;73031;44.726;37.760;2024-03-17T01:13:42;28.15;;;6.13;;
79009;SDS011;73031;44.726;37.760;2024-03-17T01:14:43;24.23;;;5.82;;
79009;SDS011;73031;44.726;37.760;2024-03-17T01:15:44;30.02;;;7.00;;
79009;SDS011;73031;44.726;37.760;2024-03-17T01:16:45;31.42;;;6.28;;
79009;SDS011;73031;44.726;37.760;2024-03-17T01:17:46;21.92;;;5.82;;
79009;SDS011;73031;44.726;37.760;2024-03-17T01:18:47;24.98;;;6.07;;
79009;SDS011;73031;44.726;37.760;2024-03-17T01:19:49;23.50;;;6.13;;
79009;SDS011;73031;44.726;37.760;2024-03-17T01:20:52;32.75;;;5.95;;
79009;SDS011;73031;44.726;37.760;2024-03-17T01:21:53;23.25;;;5.55;;
79009;SDS011;73031;44.726;37.760;2024-03-17T01:22:54;29.40;;;5.90;;
79009;SDS011;73031;44.726;37.760;2024-03-17T01:23:55;26.42;;;5.35;;
79009;SDS011;73031;44.726;37.760;2024-03-17T01:24:56;29.83;;;5.72;;
79009;SDS011;73031;44.726;37.760;2024-03-17T01:25:57;23.08;;;5.85;;
79009;SDS011;73031;44.726;37.760;2024-03-17T01:27:01;30.02;;;5.80;;
79009;SDS011;73031;44.726;37.760;2024-03-17T01:28:04;31.08;;;5.95;;
79009;SDS011;73031;44.726;37.760;2024-03-17T01:29:05;27.58;;;5.80;;
79009;SDS011;73031;44.726;37.760;2024-03-17T01:30:06;33.08;;;6.68;;
79009;SDS011;73031;44.726;37.760;2024-03-17T01:31:08;39.00;;;6.97;;
79009;SDS011;73031;44.726;37.760;2024-03-17T01:32:10;30.10;;;6.07;;
79009;SDS011;73031;44.726;37.760;2024-03-17T01:33:11;31.92;;;6.25;;
79009;SDS011;73031;44.726;37.760;2024-03-17T01:34:12;30.63;;;7.20;;
79009;SDS011;73031;44.726;37.760;2024-03-17T01:35:13;35.83;;;6.35;;
79009;SDS011;73031;44.726;37.760;2024-03-17T01:36:14;29.48;;;6.78;;
79009;SDS011;73031;44.726;37.760;2024-03-17T01:37:15;34.00;;;5.85;;
79009;SDS011;73031;44.726;37.760;2024-03-17T01:38:17;24.45;;;5.68;;
79009;SDS011;73031;44.726;37.760;2024-03-17T01:39:18;27.88;;;6.22;;
79009;SDS011;73031;44.726;37.760;2024-03-17T01:40:19;34.47;;;6.20;;
79009;SDS011;73031;44.726;37.760;2024-03-17T01:41:21;35.35;;;6.80;;
79009;SDS011;73031;44.726;37.760;2024-03-17T01:42:22;30.27;;;7.47;;
79009;SDS011;73031;44.726;37.760;2024-03-17T01:43:23;26.65;;;5.97;;
79009;SDS011;73031;44.726;37.760;2024-03-17T01:44:25;22.58;;;5.40;;
79009;SDS011;73031;44.726;37.760;2024-03-17T01:45:29;34.88;;;6.85;;
79009;SDS011;73031;44.726;37.760;2024-03-17T01:46:32;25.15;;;6.32;;
79009;SDS011;73031;44.726;37.760;2024-03-17T01:47:33;26.17;;;5.97;;
79009;SDS011;73031;44.726;37.760;2024-03-17T01:48:34;26.75;;;6.13;;
79009;SDS011;73031;44.726;37.760;2024-03-17T01:49:36;23.27;;;4.93;;
79009;SDS011;73031;44.726;37.760;2024-03-17T01:50:37;27.58;;;5.20;;
79009;SDS011;73031;44.726;37.760;2024-03-17T01:51:39;26.25;;;5.18;;
79009;SDS011;73031;44.726;37.760;2024-03-17T01:52:40;29.98;;;6.38;;
79009;SDS011;73031;44.726;37.760;2024-03-17T01:53:42;30.25;;;6.22;;
79009;SDS011;73031;44.726;37.760;2024-03-17T01:54:44;30.70;;;6.18;;
79009;SDS011;73031;44.726;37.760;2024-03-17T01:55:47;26.45;;;6.03;;
79009;SDS011;73031;44.726;37.760;2024-03-17T01:56:48;22.92;;;5.45;;
79009;SDS011;73031;44.726;37.760;2024-03-17T01:57:50;30.85;;;5.72;;
79009;SDS011;73031;44.726;37.760;2024-03-17T01:58:52;27.05;;;5.53;;
79009;SDS011;73031;44.726;37.760;2024-03-17T01:59:54;22.75;;;6.38;;
79009;SDS011;73031;44.726;37.760;2024-03-17T02:00:56;35.50;;;5.70;;
79009;SDS011;73031;44.726;37.760;2024-03-17T02:01:57;27.88;;;5.93;;
79009;SDS011;73031;44.726;37.760;2024-03-17T02:02:59;32.25;;;5.53;;
79009;SDS011;73031;44.726;37.760;2024-03-17T02:04:00;29.05;;;6.22;;
79009;SDS011;73031;44.726;37.760;2024-03-17T02:05:01;30.50;;;6.32;;
79009;SDS011;73031;44.726;37.760;2024-03-17T02:06:04;31.23;;;5.95;;
79009;SDS011;73031;44.726;37.760;2024-03-17T02:07:05;29.48;;;6.13;;
79009;SDS011;73031;44.726;37.760;2024-03-17T02:08:07;28.38;;;5.90;;
79009;SDS011;73031;44.726;37.760;2024-03-17T02:09:08;33.80;;;6.85;;
79009;SDS011;73031;44.726;37.760;2024-03-17T02:10:10;26.25;;;5.50;;
79009;SDS011;73031;44.726;37.760;2024-03-17T02:11:15;24.13;;;5.85;;
79009;SDS011;73031;44.726;37.760;2024-03-17T02:12:27;28.45;;;5.22;;
79009;SDS011;73031;44.726;37.760;2024-03-17T02:13:29;36.03;;;6.45;;
79009;SDS011;73031;44.726;37.760;2024-03-17T02:14:30;32.53;;;5.97;;
79009;SDS011;73031;44.726;37.760;2024-03-17T02:15:31;28.95;;;5.78;;
79009;SDS011;73031;44.726;37.760;2024-03-17T02:16:33;34.40;;;6.15;;
79009;SDS011;73031;44.726;37.760;2024-03-17T02:17:34;28.58;;;5.68;;
79009;SDS011;73031;44.726;37.760;2024-03-17T02:18:35;32.63;;;5.75;;
79009;SDS011;73031;44.726;37.760;2024-03-17T02:19:36;28.08;;;5.65;;
79009;SDS011;73031;44.726;37.760;2024-03-17T02:20:37;29.92;;;5.72;;
79009;SDS011;73031;44.726;37.760;2024-03-17T02:21:59;32.17;;;6.15;;
79009;SDS011;73031;44.726;37.760;2024-03-17T02:23:00;22.98;;;5.47;;
79009;SDS011;73031;44.726;37.760;2024-03-17T02:24:01;27.85;;;6.03;;
79009;SDS011;73031;44.726;37.760;2024-03-17T02:25:02;38.22;;;7.07;;
79009;SDS011;73031;44.726;37.760;2024-03-17T02:26:04;24.45;;;6.22;;
79009;SDS011;73031;44.726;37.760;2024-03-17T02:27:05;29.63;;;5.50;;
79009;SDS011;73031;44.726;37.760;2024-03-17T02:28:06;26.73;;;5.82;;
79009;SDS011;73031;44.726;37.760;2024-03-17T02:29:07;33.70;;;6.18;;
79009;SDS011;73031;44.726;37.760;2024-03-17T02:30:08;30.88;;;6.10;;
79009;SDS011;73031;44.726;37.760;2024-03-17T02:31:10;27.50;;;5.80;;
79009;SDS011;73031;44.726;37.760;2024-03-17T02:32:12;36.33;;;6.60;;
79009;SDS011;73031;44.726;37.760;2024-03-17T02:33:14;34.63;;;6.28;;
79009;SDS011;73031;44.726;37.760;2024-03-17T02:34:15;37.38;;;6.65;;
79009;SDS011;73031;44.726;37.760;2024-03-17T02:35:16;33.40;;;7.05;;
79009;SDS011;73031;44.726;37.760;2024-03-17T02:36:17;36.70;;;6.53;;
79009;SDS011;73031;44.726;37.760;2024-03-17T02:37:18;35.40;;;6.22;;
79009;SDS011;73031;44.726;37.760;2024-03-17T02:38:19;29.95;;;6.47;;
79009;SDS011;73031;44.726;37.760;2024-03-17T02:39:40;30.95;;;6.72;;
79009;SDS011;73031;44.726;37.760;2024-03-17T02:40:41;29.95;;;5.72;;
79009;SDS011;73031;44.726;37.760;2024-03-17T02:41:43;37.22;;;6.47;;
79009;SDS011;73031;44.726;37.760;2024-03-17T02:42:44;38.92;;;6.47;;
79009;SDS011;73031;44.726;37.760;2024-03-17T02:43:46;25.83;;;6.35;;
79009;SDS011;73031;44.726;37.760;2024-03-17T02:44:47;32.60;;;6.75;;
79009;SDS011;73031;44.726;37.760;2024-03-17T02:45:48;32.95;;;6.43;;
79009;SDS011;73031;44.726;37.760;2024-03-17T02:46:49;34.45;;;6.18;;
79009;SDS011;73031;44.726;37.760;2024-03-17T02:47:51;35.70;;;6.13;;
79009;SDS011;73031;44.726;37.760;2024-03-17T02:48:53;33.80;;;6.55;;
79009;SDS011;73031;44.726;37.760;2024-03-17T02:49:54;30.85;;;7.10;;
79009;SDS011;73031;44.726;37.760;2024-03-17T02:50:55;31.45;;;7.32;;
79009;SDS011;73031;44.726;37.760;2024-03-17T02:51:56;39.33;;;6.03;;
79009;SDS011;73031;44.726;37.760;2024-03-17T02:52:57;37.20;;;6.45;;
79009;SDS011;73031;44.726;37.760;2024-03-17T02:53:59;40.20;;;6.45;;
79009;SDS011;73031;44.726;37.760;2024-03-17T02:55:00;31.13;;;6.78;;
79009;SDS011;73031;44.726;37.760;2024-03-17T02:56:01;27.73;;;6.68;;
79009;SDS011;73031;44.726;37.760;2024-03-17T02:57:03;32.25;;;7.25;;
79009;SDS011;73031;44.726;37.760;2024-03-17T02:58:04;33.78;;;6.93;;
79009;SDS011;73031;44.726;37.760;2024-03-17T02:59:07;35.13;;;6.10;;
79009;SDS011;73031;44.726;37.760;2024-03-17T03:00:08;39.80;;;8.52;;
79009;SDS011;73031;44.726;37.760;2024-03-17T03:01:13;29.85;;;6.78;;
79009;SDS011;73031;44.726;37.760;2024-03-17T03:02:15;35.83;;;6.07;;
79009;SDS011;73031;44.726;37.760;2024-03-17T03:03:16;30.58;;;6.63;;
79009;SDS011;73031;44.726;37.760;2024-03-17T03:04:17;34.22;;;6.38;;
79009;SDS011;73031;44.726;37.760;2024-03-17T03:05:18;36.20;;;7.28;;
79009;SDS011;73031;44.726;37.760;2024-03-17T03:06:19;36.08;;;7.38;;
79009;SDS011;73031;44.726;37.760;2024-03-17T03:07:21;29.98;;;6.50;;
79009;SDS011;73031;44.726;37.760;2024-03-17T03:08:22;32.13;;;7.07;;
79009;SDS011;73031;44.726;37.760;2024-03-17T03:09:26;30.85;;;5.68;;
79009;SDS011;73031;44.726;37.760;2024-03-17T03:10:32;48.20;;;8.00;;
79009;SDS011;73031;44.726;37.760;2024-03-17T03:11:35;36.28;;;6.80;;
79009;SDS011;73031;44.726;37.760;2024-03-17T03:12:37;30.13;;;7.13;;
79009;SDS011;73031;44.726;37.760;2024-03-17T03:13:38;29.23;;;6.35;;
79009;SDS011;73031;44.726;37.760;2024-03-17T03:14:40;33.65;;;7.90;;
79009;SDS011;73031;44.726;37.760;2024-03-17T03:15:41;27.20;;;6.47;;
79009;SDS011;73031;44.726;37.760;2024-03-17T03:16:44;32.40;;;6.60;;
79009;SDS011;73031;44.726;37.760;2024-03-17T03:17:45;33.08;;;6.45;;
79009;SDS011;73031;44.726;37.760;2024-03-17T03:18:46;35.95;;;6.80;;
79009;SDS011;73031;44.726;37.760;2024-03-17T03:19:47;29.45;;;6.68;;
79009;SDS011;73031;44.726;37.760;2024-03-17T03:20:51;38.75;;;6.50;;
79009;SDS011;73031;44.726;37.760;2024-03-17T03:21:53;34.63;;;6.65;;
79009;SDS011;73031;44.726;37.760;2024-03-17T03:22:54;36.03;;;7.32;;
79009;SDS011;73031;44.726;37.760;2024-03-17T03:23:55;29.30;;;6.28;;
79009;SDS011;73031;44.726;37.760;2024-03-17T03:24:56;35.80;;;6.28;;
79009;SDS011;73031;44.726;37.760;2024-03-17T03:25:59;28.10;;;5.75;;
79009;SDS011;73031;44.726;37.760;2024-03-17T03:28:05;38.28;;;6.32;;
79009;SDS011;73031;44.726;37.760;2024-03-17T03:29:06;38.03;;;6.85;;
79009;SDS011;73031;44.726;37.760;2024-03-17T03:30:07;32.42;;;6.78;;
79009;SDS011;73031;44.726;37.760;2024-03-17T03:31:12;35.60;;;6.30;;
79009;SDS011;73031;44.726;37.760;2024-03-17T03:32:17;31.40;;;6.30;;
79009;SDS011;73031;44.726;37.760;2024-03-17T03:33:19;35.58;;;6.28;;
79009;SDS011;73031;44.726;37.760;2024-03-17T03:34:20;30.85;;;6.35;;
79009;SDS011;73031;44.726;37.760;2024-03-17T03:35:21;28.35;;;6.47;;
79009;SDS011;73031;44.726;37.760;2024-03-17T03:36:22;35.53;;;6.93;;
79009;SDS011;73031;44.726;37.760;2024-03-17T03:37:23;36.65;;;6.60;;
79009;SDS011;73031;44.726;37.760;2024-03-17T03:38:25;36.88;;;6.80;;
79009;SDS011;73031;44.726;37.760;2024-03-17T03:39:26;37.15;;;6.68;;
79009;SDS011;73031;44.726;37.760;2024-03-17T03:40:32;36.60;;;6.60;;
79009;SDS011;73031;44.726;37.760;2024-03-17T03:41:33;39.67;;;6.65;;
79009;SDS011;73031;44.726;37.760;2024-03-17T03:42:34;32.20;;;6.65;;
79009;SDS011;73031;44.726;37.760;2024-03-17T03:43:35;31.90;;;6.75;;
79009;SDS011;73031;44.726;37.760;2024-03-17T03:44:37;43.28;;;8.85;;
79009;SDS011;73031;44.726;37.760;2024-03-17T03:45:39;42.80;;;9.40;;
79009;SDS011;73031;44.726;37.760;2024-03-17T03:46:40;51.28;;;12.27;;
79009;SDS011;73031;44.726;37.760;2024-03-17T03:47:42;39.75;;;14.27;;
79009;SDS011;73031;44.726;37.760;2024-03-17T03:48:43;44.97;;;12.45;;
79009;SDS011;73031;44.726;37.760;2024-03-17T03:49:44;39.47;;;7.43;;
79009;SDS011;73031;44.726;37.760;2024-03-17T03:50:46;42.15;;;10.73;;
79009;SDS011;73031;44.726;37.760;2024-03-17T03:51:48;41.20;;;9.68;;
79009;SDS011;73031;44.726;37.760;2024-03-17T03:52:49;41.58;;;8.90;;
79009;SDS011;73031;44.726;37.760;2024-03-17T03:53:50;39.17;;;11.63;;
79009;SDS011;73031;44.726;37.760;2024-03-17T03:54:52;38.65;;;9.45;;
79009;SDS011;73031;44.726;37.760;2024-03-17T03:55:54;46.28;;;10.32;;
79009;SDS011;73031;44.726;37.760;2024-03-17T03:56:55;44.78;;;9.75;;
79009;SDS011;73031;44.726;37.760;2024-03-17T03:57:56;42.25;;;9.70;;
79009;SDS011;73031;44.726;37.760;2024-03-17T03:58:57;34.90;;;8.52;;
79009;SDS011;73031;44.726;37.760;2024-03-17T03:59:59;40.08;;;10.93;;
79009;SDS011;73031;44.726;37.760;2024-03-17T04:01:07;38.67;;;10.07;;
79009;SDS011;73031;44.726;37.760;2024-03-17T04:02:09;39.08;;;7.10;;
79009;SDS011;73031;44.726;37.760;2024-03-17T04:03:10;43.05;;;12.43;;
79009;SDS011;73031;44.726;37.760;2024-03-17T04:04:12;51.78;;;12.90;;
79009;SDS011;73031;44.726;37.760;2024-03-17T04:05:13;131.50;;;56.67;;
79009;SDS011;73031;44.726;37.760;2024-03-17T04:06:14;57.80;;;23.05;;
79009;SDS011;73031;44.726;37.760;2024-03-17T04:07:16;54.80;;;20.27;;
79009;SDS011;73031;44.726;37.760;2024-03-17T04:08:17;49.83;;;14.65;;
79009;SDS011;73031;44.726;37.760;2024-03-17T04:09:18;61.60;;;17.77;;
79009;SDS011;73031;44.726;37.760;2024-03-17T04:10:20;42.83;;;9.52;;
79009;SDS011;73031;44.726;37.760;2024-03-17T04:11:22;41.00;;;9.68;;
79009;SDS011;73031;44.726;37.760;2024-03-17T04:12:26;37.38;;;7.93;;
79009;SDS011;73031;44.726;37.760;2024-03-17T04:13:28;37.40;;;7.43;;
79009;SDS011;73031;44.726;37.760;2024-03-17T04:14:33;36.13;;;6.18;;
79009;SDS011;73031;44.726;37.760;2024-03-17T04:15:34;34.95;;;6.95;;
79009;SDS011;73031;44.726;37.760;2024-03-17T04:16:35;45.90;;;8.27;;
79009;SDS011;73031;44.726;37.760;2024-03-17T04:17:37;38.78;;;6.85;;
79009;SDS011;73031;44.726;37.760;2024-03-17T04:18:40;45.53;;;7.70;;
79009;SDS011;73031;44.726;37.760;2024-03-17T04:19:41;40.10;;;6.85;;
79009;SDS011;73031;44.726;37.760;2024-03-17T04:20:42;34.55;;;6.03;;
79009;SDS011;73031;44.726;37.760;2024-03-17T04:21:43;33.20;;;6.85;;
79009;SDS011;73031;44.726;37.760;2024-03-17T04:22:44;48.13;;;14.35;;
79009;SDS011;73031;44.726;37.760;2024-03-17T04:23:46;43.60;;;10.35;;
79009;SDS011;73031;44.726;37.760;2024-03-17T04:24:47;35.00;;;10.00;;
79009;SDS011;73031;44.726;37.760;2024-03-17T04:25:53;37.15;;;9.07;;
79009;SDS011;73031;44.726;37.760;2024-03-17T04:26:54;44.67;;;12.93;;
79009;SDS011;73031;44.726;37.760;2024-03-17T04:27:56;36.17;;;8.70;;
79009;SDS011;73031;44.726;37.760;2024-03-17T04:28:58;48.97;;;14.48;;
79009;SDS011;73031;44.726;37.760;2024-03-17T04:30:01;46.17;;;12.73;;
79009;SDS011;73031;44.726;37.760;2024-03-17T04:31:06;62.20;;;21.63;;
79009;SDS011;73031;44.726;37.760;2024-03-17T04:32:07;45.88;;;10.40;;
79009;SDS011;73031;44.726;37.760;2024-03-17T04:33:09;70.50;;;28.50;;
79009;SDS011;73031;44.726;37.760;2024-03-17T04:34:11;81.07;;;33.88;;
79009;SDS011;73031;44.726;37.760;2024-03-17T04:35:12;59.17;;;18.33;;
79009;SDS011;73031;44.726;37.760;2024-03-17T04:36:13;72.00;;;27.50;;
79009;SDS011;73031;44.726;37.760;2024-03-17T04:37:15;55.25;;;18.08;;
79009;SDS011;73031;44.726;37.760;2024-03-17T04:38:16;49.65;;;17.30;;
79009;SDS011;73031;44.726;37.760;2024-03-17T04:39:19;36.30;;;13.25;;
79009;SDS011;73031;44.726;37.760;2024-03-17T04:40:21;33.28;;;9.85;;
79009;SDS011;73031;44.726;37.760;2024-03-17T04:41:23;44.08;;;12.82;;
79009;SDS011;73031;44.726;37.760;2024-03-17T04:42:24;44.75;;;14.13;;
79009;SDS011;73031;44.726;37.760;2024-03-17T04:43:25;45.17;;;14.82;;
79009;SDS011;73031;44.726;37.760;2024-03-17T04:44:26;48.92;;;13.50;;
79009;SDS011;73031;44.726;37.760;2024-03-17T04:45:27;46.15;;;11.35;;
79009;SDS011;73031;44.726;37.760;2024-03-17T04:46:28;46.50;;;15.55;;
79009;SDS011;73031;44.726;37.760;2024-03-17T04:47:29;51.30;;;18.27;;
79009;SDS011;73031;44.726;37.760;2024-03-17T04:48:31;50.22;;;14.68;;
79009;SDS011;73031;44.726;37.760;2024-03-17T04:49:43;49.10;;;12.55;;
79009;SDS011;73031;44.726;37.760;2024-03-17T04:50:44;42.03;;;11.95;;
79009;SDS011;73031;44.726;37.760;2024-03-17T04:51:46;49.17;;;12.02;;
79009;SDS011;73031;44.726;37.760;2024-03-17T04:52:47;45.95;;;12.23;;
79009;SDS011;73031;44.726;37.760;2024-03-17T04:53:49;43.25;;;11.35;;
79009;SDS011;73031;44.726;37.760;2024-03-17T04:54:50;44.60;;;14.90;;
79009;SDS011;73031;44.726;37.760;2024-03-17T04:56:01;37.75;;;7.47;;
79009;SDS011;73031;44.726;37.760;2024-03-17T04:57:05;49.45;;;8.40;;
79009;SDS011;73031;44.726;37.760;2024-03-17T04:58:06;35.95;;;7.57;;
79009;SDS011;73031;44.726;37.760;2024-03-17T04:59:07;41.83;;;9.48;;
79009;SDS011;73031;44.726;37.760;2024-03-17T05:00:08;46.75;;;11.20;;
79009;SDS011;73031;44.726;37.760;2024-03-17T05:01:12;38.05;;;10.63;;
79009;SDS011;73031;44.726;37.760;2024-03-17T05:02:13;44.92;;;11.98;;
79009;SDS011;73031;44.726;37.760;2024-03-17T05:03:14;52.15;;;12.30;;
79009;SDS011;73031;44.726;37.760;2024-03-17T05:04:16;81.57;;;31.00;;
79009;SDS011;73031;44.726;37.760;2024-03-17T05:05:17;110.10;;;41.35;;
79009;SDS011;73031;44.726;37.760;2024-03-17T05:06:18;63.38;;;17.58;;
79009;SDS011;73031;44.726;37.760;2024-03-17T05:07:19;54.83;;;13.52;;
79009;SDS011;73031;44.726;37.760;2024-03-17T05:08:20;34.28;;;8.73;;
79009;SDS011;73031;44.726;37.760;2024-03-17T05:09:21;38.05;;;8.75;;
79009;SDS011;73031;44.726;37.760;2024-03-17T05:10:23;39.50;;;8.35;;
79009;SDS011;73031;44.726;37.760;2024-03-17T05:11:25;37.97;;;6.85;;
79009;SDS011;73031;44.726;37.760;2024-03-17T05:12:27;39.50;;;7.22;;
79009;SDS011;73031;44.726;37.760;2024-03-17T05:13:28;42.70;;;6.90;;
79009;SDS011;73031;44.726;37.760;2024-03-17T05:14:29;48.03;;;6.90;;
79009;SDS011;73031;44.726;37.760;2024-03-17T05:15:30;39.53;;;6.60;;
79009;SDS011;73031;44.726;37.760;2024-03-17T05:16:31;38.05;;;6.32;;
79009;SDS011;73031;44.726;37.760;2024-03-17T05:17:33;35.28;;;7.63;;
79009;SDS011;73031;44.726;37.760;2024-03-17T05:18:34;43.30;;;7.40;;
79009;SDS011;73031;44.726;37.760;2024-03-17T05:19:35;37.88;;;6.82;;
79009;SDS011;73031;44.726;37.760;2024-03-17T05:20:37;44.47;;;6.65;;
79009;SDS011;73031;44.726;37.760;2024-03-17T05:21:38;31.20;;;6.25;;
79009;SDS011;73031;44.726;37.760;2024-03-17T05:22:39;33.03;;;6.85;;
79009;SDS011;73031;44.726;37.760;2024-03-17T05:23:40;43.10;;;7.95;;
79009;SDS011;73031;44.726;37.760;2024-03-17T05:24:41;37.80;;;7.10;;
79009;SDS011;73031;44.726;37.760;2024-03-17T05:25:50;41.28;;;9.23;;
79009;SDS011;73031;44.726;37.760;2024-03-17T05:26:54;55.22;;;17.08;;
79009;SDS011;73031;44.726;37.760;2024-03-17T05:27:55;128.25;;;55.22;;
79009;SDS011;73031;44.726;37.760;2024-03-17T05:28:57;112.22;;;45.67;;
79009;SDS011;73031;44.726;37.760;2024-03-17T05:29:58;61.00;;;16.63;;
79009;SDS011;73031;44.726;37.760;2024-03-17T05:30:59;40.70;;;12.68;;
79009;SDS011;73031;44.726;37.760;2024-03-17T05:32:00;45.97;;;14.57;;
79009;SDS011;73031;44.726;37.760;2024-03-17T05:33:03;47.10;;;11.20;;
79009;SDS011;73031;44.726;37.760;2024-03-17T05:34:07;56.33;;;16.55;;
79009;SDS011;73031;44.726;37.760;2024-03-17T05:35:10;57.05;;;15.15;;
79009;SDS011;73031;44.726;37.760;2024-03-17T05:36:11;51.08;;;22.13;;
79009;SDS011;73031;44.726;37.760;2024-03-17T05:37:12;50.70;;;14.88;;
79009;SDS011;73031;44.726;37.760;2024-03-17T05:38:14;63.38;;;26.02;;
79009;SDS011;73031;44.726;37.760;2024-03-17T05:39:15;64.45;;;19.92;;
79009;SDS011;73031;44.726;37.760;2024-03-17T05:40:16;56.15;;;16.95;;
79009;SDS011;73031;44.726;37.760;2024-03-17T05:41:17;46.10;;;11.60;;
79009;SDS011;73031;44.726;37.760;2024-03-17T05:42:18;45.33;;;14.82;;
79009;SDS011;73031;44.726;37.760;2024-03-17T05:43:20;47.42;;;12.73;;
79009;SDS011;73031;44.726;37.760;2024-03-17T05:44:22;50.92;;;13.55;;
79009;SDS011;73031;44.726;37.760;2024-03-17T05:45:23;50.92;;;14.30;;
79009;SDS011;73031;44.726;37.760;2024-03-17T05:46:25;37.47;;;9.23;;
79009;SDS011;73031;44.726;37.760;2024-03-17T05:47:27;47.70;;;16.08;;
79009;SDS011;73031;44.726;37.760;2024-03-17T05:48:28;46.63;;;12.18;;
79009;SDS011;73031;44.726;37.760;2024-03-17T05:49:30;52.38;;;12.00;;
79009;SDS011;73031;44.726;37.760;2024-03-17T05:50:31;55.03;;;16.85;;
79009;SDS011;73031;44.726;37.760;2024-03-17T05:51:32;78.22;;;35.75;;
79009;SDS011;73031;44.726;37.760;2024-03-17T05:52:33;52.10;;;17.70;;
79009;SDS011;73031;44.726;37.760;2024-03-17T05:53:35;88.38;;;38.83;;
79009;SDS011;73031;44.726;37.760;2024-03-17T05:54:38;54.63;;;19.23;;
79009;SDS011;73031;44.726;37.760;2024-03-17T05:55:39;56.40;;;20.98;;
79009;SDS011;73031;44.726;37.760;2024-03-17T05:56:43;40.80;;;8.50;;
79009;SDS011;73031;44.726;37.760;2024-03-17T05:57:44;43.20;;;8.82;;
79009;SDS011;73031;44.726;37.760;2024-03-17T05:58:45;39.67;;;12.60;;
79009;SDS011;73031;44.726;37.760;2024-03-17T05:59:47;59.63;;;24.67;;
79009;SDS011;73031;44.726;37.760;2024-03-17T06:00:48;45.67;;;14.27;;
79009;SDS011;73031;44.726;37.760;2024-03-17T06:01:49;57.17;;;21.13;;
79009;SDS011;73031;44.726;37.760;2024-03-17T06:02:51;56.47;;;17.42;;